createdAt,value
2018-11-29T00:02:09.194Z,18.33
2018-11-29T00:04:37.297Z,18.03
2018-11-29T00:07:05.608Z,18.07
2018-11-29T00:09:38.784Z,18.27
2018-11-29T00:12:07.660Z,18.97
2018-11-29T00:14:36.627Z,19.40
2018-11-29T00:17:04.723Z,19.67
2018-11-29T00:19:32.843Z,18.93
2018-11-29T00:22:00.924Z,20.03
2018-11-29T00:24:29.010Z,19.87
2018-11-29T00:26:57.094Z,18.67
2018-11-29T00:29:25.167Z,18.57
2018-11-29T00:31:53.368Z,18.97
2018-11-29T00:34:21.451Z,18.27
2018-11-29T00:36:49.514Z,19.57
2018-11-29T00:39:17.589Z,19.27
2018-11-29T00:41:45.663Z,19.00
2018-11-29T00:44:13.766Z,18.40
2018-11-29T00:46:41.828Z,19.50
2018-11-29T00:49:09.922Z,18.77
2018-11-29T00:51:38.008Z,19.43
2018-11-29T00:54:06.095Z,18.43
2018-11-29T00:56:34.163Z,18.17
2018-11-29T00:59:02.245Z,18.40
2018-11-29T01:01:30.338Z,18.63
2018-11-29T01:03:58.393Z,18.60
2018-11-29T01:06:26.494Z,17.03
2018-11-29T01:08:54.596Z,17.97
2018-11-29T01:11:22.692Z,17.73
2018-11-29T01:13:50.779Z,18.63
2018-11-29T01:16:18.845Z,18.13
2018-11-29T01:18:46.948Z,19.63
2018-11-29T01:21:15.030Z,19.10
2018-11-29T01:23:43.094Z,18.77
2018-11-29T01:26:11.168Z,18.37
2018-11-29T01:28:39.276Z,19.13
2018-11-29T01:31:07.387Z,19.87
2018-11-29T01:33:35.436Z,20.90
2018-11-29T01:36:03.526Z,20.43
2018-11-29T01:38:31.605Z,19.13
2018-11-29T01:40:59.709Z,20.97
2018-11-29T01:43:27.776Z,19.77
2018-11-29T01:45:55.911Z,19.57
2018-11-29T01:48:23.991Z,19.60
2018-11-29T01:50:52.036Z,20.70
2018-11-29T01:53:20.113Z,22.30
2018-11-29T01:55:48.199Z,21.50
2018-11-29T01:58:16.260Z,23.70
2018-11-29T02:00:44.332Z,21.43
2018-11-29T02:03:12.434Z,21.47
2018-11-29T02:05:40.515Z,21.00
2018-11-29T02:08:08.613Z,21.83
2018-11-29T02:10:52.462Z,21.67
2018-11-29T02:13:20.701Z,20.87
2018-11-29T02:15:48.796Z,21.53
2018-11-29T02:18:16.945Z,21.27
2018-11-29T02:20:45.045Z,20.73
2018-11-29T02:23:13.129Z,22.97
2018-11-29T02:25:41.186Z,22.07
2018-11-29T02:28:09.258Z,20.73
2018-11-29T02:30:37.366Z,21.43
2018-11-29T02:33:05.473Z,20.83
2018-11-29T02:35:33.548Z,22.20
2018-11-29T02:38:01.791Z,20.97
2018-11-29T02:40:29.887Z,22.13
2018-11-29T02:42:57.963Z,22.57
2018-11-29T02:45:26.031Z,22.87
2018-11-29T02:47:54.137Z,22.13
2018-11-29T02:50:22.212Z,22.23
2018-11-29T02:52:50.312Z,22.57
2018-11-29T02:55:18.389Z,22.47
2018-11-29T02:57:46.487Z,22.00
2018-11-29T03:00:16.475Z,22.47
2018-11-29T03:02:44.596Z,21.80
2018-11-29T03:05:12.694Z,23.13
2018-11-29T03:07:40.814Z,22.83
2018-11-29T03:10:10.801Z,22.47
2018-11-29T03:12:38.901Z,22.77
2018-11-29T03:15:11.272Z,22.57
2018-11-29T03:17:39.463Z,22.80
2018-11-29T03:20:08.830Z,22.10
2018-11-29T03:22:36.921Z,22.07
2018-11-29T03:25:07.361Z,22.17
2018-11-29T03:27:35.450Z,22.30
2018-11-29T03:30:03.688Z,21.70
2018-11-29T03:32:31.787Z,22.27
2018-11-29T03:34:59.868Z,24.10
2018-11-29T03:37:27.989Z,22.20
2018-11-29T03:39:56.163Z,22.43
2018-11-29T03:42:24.309Z,21.60
2018-11-29T03:44:52.400Z,21.00
2018-11-29T03:47:20.478Z,20.83
2018-11-29T03:49:48.564Z,22.03
2018-11-29T03:52:16.653Z,20.87
2018-11-29T03:54:44.736Z,21.97
2018-11-29T03:57:12.818Z,22.80
2018-11-29T03:59:40.948Z,21.40
2018-11-29T04:02:09.024Z,22.13
2018-11-29T04:04:37.110Z,22.40
2018-11-29T04:07:06.000Z,22.73
2018-11-29T04:09:34.110Z,23.10
2018-11-29T04:12:02.299Z,22.27
2018-11-29T04:14:30.355Z,22.67
2018-11-29T04:16:58.448Z,23.57
2018-11-29T04:19:26.541Z,23.27
2018-11-29T04:21:55.315Z,24.30
2018-11-29T04:24:23.402Z,23.57
2018-11-29T04:26:51.492Z,23.30
2018-11-29T04:29:19.866Z,23.33
2018-11-29T04:31:47.972Z,24.03
2018-11-29T04:34:16.112Z,23.70
2018-11-29T04:36:44.195Z,23.33
2018-11-29T04:39:12.296Z,25.03
2018-11-29T04:41:40.399Z,24.50
2018-11-29T04:44:08.471Z,24.10
2018-11-29T04:46:52.714Z,23.53
2018-11-29T04:49:20.812Z,23.83
2018-11-29T04:51:48.918Z,23.50
2018-11-29T04:54:17.014Z,23.07
2018-11-29T04:56:45.096Z,23.30
2018-11-29T04:59:13.158Z,23.47
2018-11-29T05:01:41.252Z,22.90
2018-11-29T05:04:09.374Z,23.23
2018-11-29T05:06:37.453Z,22.80
2018-11-29T05:09:07.987Z,21.90
2018-11-29T05:11:36.150Z,21.57
2018-11-29T05:14:05.435Z,22.20
2018-11-29T05:16:33.514Z,23.10
2018-11-29T05:19:01.596Z,23.40
2018-11-29T05:21:29.682Z,23.57
2018-11-29T05:23:57.775Z,22.93
2018-11-29T05:26:25.844Z,23.07
2018-11-29T05:28:53.945Z,23.60
2018-11-29T05:31:22.034Z,22.87
2018-11-29T05:33:50.147Z,22.47
2018-11-29T05:36:18.228Z,22.20
2018-11-29T05:38:46.285Z,21.73
2018-11-29T05:41:14.361Z,23.10
2018-11-29T05:43:42.451Z,22.30
2018-11-29T05:46:10.565Z,23.40
2018-11-29T05:48:38.658Z,23.63
2018-11-29T05:51:06.774Z,24.77
2018-11-29T05:53:34.913Z,25.77
2018-11-29T05:56:03.066Z,26.20
2018-11-29T05:58:31.168Z,25.33
2018-11-29T06:01:02.975Z,25.67
2018-11-29T06:03:31.053Z,26.40
2018-11-29T06:05:59.159Z,25.80
2018-11-29T06:08:27.256Z,24.90
2018-11-29T06:10:55.361Z,23.73
2018-11-29T06:13:23.450Z,23.77
2018-11-29T06:15:51.536Z,23.20
2018-11-29T06:18:19.625Z,24.13
2018-11-29T06:20:47.716Z,25.87
2018-11-29T06:23:15.916Z,23.30
2018-11-29T06:25:44.045Z,22.20
2018-11-29T06:30:45.565Z,22.27
2018-11-29T06:33:13.644Z,22.70
2018-11-29T06:35:41.708Z,22.47
2018-11-29T06:38:09.792Z,22.33
2018-11-29T06:40:37.870Z,21.27
2018-11-29T06:43:05.967Z,23.50
2018-11-29T06:45:34.055Z,22.90
2018-11-29T06:48:02.134Z,22.67
2018-11-29T06:50:30.388Z,23.27
2018-11-29T06:52:58.495Z,23.17
2018-11-29T06:55:26.619Z,22.80
2018-11-29T06:57:54.703Z,22.43
2018-11-29T07:00:30.956Z,22.03
2018-11-29T07:02:59.038Z,20.77
2018-11-29T07:05:27.111Z,22.13
2018-11-29T07:07:55.211Z,20.77
2018-11-29T07:10:28.598Z,22.00
2018-11-29T07:12:56.723Z,21.47
2018-11-29T07:15:24.794Z,21.73
2018-11-29T07:17:52.853Z,22.20
2018-11-29T07:20:20.925Z,21.17
2018-11-29T07:22:49.036Z,20.63
2018-11-29T07:25:17.100Z,22.33
2018-11-29T07:27:45.163Z,21.23
2018-11-29T07:30:17.909Z,21.50
2018-11-29T07:32:46.263Z,21.93
2018-11-29T07:35:15.321Z,21.93
2018-11-29T07:37:43.464Z,21.67
2018-11-29T07:40:12.688Z,21.80
2018-11-29T07:42:40.921Z,20.87
2018-11-29T07:45:16.939Z,20.43
2018-11-29T07:47:45.400Z,22.03
2018-11-29T07:50:15.675Z,21.27
2018-11-29T07:52:43.716Z,23.00
2018-11-29T07:55:15.882Z,21.73
2018-11-29T07:57:44.444Z,19.63
2018-11-29T08:00:13.524Z,20.03
2018-11-29T08:02:41.616Z,19.80
2018-11-29T08:05:10.825Z,20.47
2018-11-29T08:07:39.744Z,19.40
2018-11-29T08:10:09.555Z,18.97
2018-11-29T08:12:37.810Z,18.00
2018-11-29T08:15:07.751Z,18.53
2018-11-29T08:17:35.810Z,19.33
2018-11-29T08:20:06.317Z,18.93
2018-11-29T08:22:34.425Z,19.67
2018-11-29T08:25:02.514Z,20.43
2018-11-29T08:27:30.588Z,19.63
2018-11-29T08:29:58.673Z,17.87
2018-11-29T08:32:26.740Z,19.33
2018-11-29T08:34:54.828Z,18.43
2018-11-29T08:37:22.906Z,18.93
2018-11-29T08:39:50.985Z,17.10
2018-11-29T08:42:19.044Z,18.17
2018-11-29T08:44:47.122Z,17.17
2018-11-29T08:47:15.206Z,17.00
2018-11-29T08:49:43.270Z,18.33
2018-11-29T08:52:11.332Z,17.50
2018-11-29T08:54:39.382Z,16.27
2018-11-29T08:57:07.446Z,16.00
2018-11-29T08:59:35.479Z,15.80
2018-11-29T09:02:03.534Z,14.03
2018-11-29T09:04:31.566Z,15.07
2018-11-29T09:06:59.602Z,14.20
2018-11-29T09:09:27.663Z,13.83
2018-11-29T09:11:55.727Z,15.83
2018-11-29T09:14:23.768Z,13.50
2018-11-29T09:16:51.821Z,14.37
2018-11-29T09:20:23.463Z,12.63
2018-11-29T09:22:51.498Z,13.57
2018-11-29T09:25:20.692Z,13.07
2018-11-29T09:27:48.753Z,13.30
2018-11-29T09:30:18.800Z,13.33
2018-11-29T09:32:47.808Z,13.27
2018-11-29T09:35:15.886Z,13.43
2018-11-29T09:37:43.931Z,13.20
2018-11-29T09:40:13.844Z,14.13
2018-11-29T09:42:41.945Z,13.97
2018-11-29T09:45:13.268Z,13.93
2018-11-29T09:47:41.322Z,13.43
2018-11-29T09:50:11.552Z,13.63
2018-11-29T09:52:40.039Z,15.23
2018-11-29T09:55:09.335Z,14.20
2018-11-29T09:57:37.414Z,14.60
2018-11-29T10:00:13.891Z,15.27
2018-11-29T10:02:42.312Z,14.50
2018-11-29T10:05:11.268Z,15.43
2018-11-29T10:07:39.118Z,14.53
2018-11-29T10:10:07.786Z,13.90
2018-11-29T10:12:35.604Z,13.33
2018-11-29T10:15:03.851Z,13.90
2018-11-29T10:17:31.888Z,13.97
2018-11-29T10:19:59.731Z,13.00
2018-11-29T10:22:27.770Z,12.87
2018-11-29T10:24:55.797Z,17.40
2018-11-29T10:27:23.855Z,18.07
2018-11-29T10:29:51.902Z,17.23
2018-11-29T10:32:19.797Z,13.53
2018-11-29T10:34:47.684Z,13.03
2018-11-29T10:37:15.583Z,13.60
2018-11-29T10:39:43.487Z,12.70
2018-11-29T10:42:11.383Z,12.97
2018-11-29T10:44:39.297Z,13.23
2018-11-29T10:47:07.189Z,13.10
2018-11-29T10:49:35.086Z,12.10
2018-11-29T10:52:02.972Z,11.87
2018-11-29T10:54:30.860Z,11.60
2018-11-29T10:56:58.774Z,11.07
2018-11-29T10:59:26.687Z,10.87
2018-11-29T11:02:00.088Z,10.47
2018-11-29T11:04:27.984Z,9.83
2018-11-29T11:06:55.886Z,10.93
2018-11-29T11:09:23.790Z,10.60
2018-11-29T11:11:51.682Z,9.90
2018-11-29T11:14:19.575Z,9.23
2018-11-29T11:16:47.460Z,9.80
2018-11-29T11:19:15.373Z,8.37
2018-11-29T11:21:43.243Z,8.93
2018-11-29T11:24:11.145Z,8.90
2018-11-29T11:26:39.039Z,9.13
2018-11-29T11:29:06.942Z,9.17
2018-11-29T11:31:34.882Z,8.13
2018-11-29T11:34:02.741Z,10.07
2018-11-29T11:36:30.638Z,9.87
2018-11-29T11:38:58.538Z,8.13
2018-11-29T11:41:26.435Z,11.93
2018-11-29T11:43:54.330Z,9.37
2018-11-29T11:46:22.249Z,7.33
2018-11-29T11:48:50.153Z,7.77
2018-11-29T11:51:18.028Z,7.83
2018-11-29T11:53:45.929Z,8.07
2018-11-29T11:56:13.804Z,7.37
2018-11-29T11:58:41.709Z,7.57
2018-11-29T12:01:09.620Z,8.67
2018-11-29T12:03:37.491Z,7.57
2018-11-29T12:06:05.416Z,7.43
2018-11-29T12:08:33.320Z,7.67
2018-11-29T12:11:01.253Z,7.83
2018-11-29T12:13:29.158Z,7.60
2018-11-29T12:15:57.046Z,7.70
2018-11-29T12:18:24.927Z,7.57
2018-11-29T12:20:52.820Z,7.60
2018-11-29T12:23:20.720Z,7.10
2018-11-29T12:25:48.628Z,7.30
2018-11-29T12:28:16.532Z,6.37
2018-11-29T12:30:45.315Z,7.30
2018-11-29T12:33:13.205Z,7.07
2018-11-29T12:35:41.131Z,7.40
2018-11-29T12:38:09.015Z,6.97
2018-11-29T12:40:36.932Z,6.93
2018-11-29T12:43:04.795Z,6.53
2018-11-29T12:45:32.690Z,7.70
2018-11-29T12:48:00.568Z,7.40
2018-11-29T12:50:28.464Z,7.63
2018-11-29T12:52:56.335Z,6.87
2018-11-29T12:55:24.795Z,7.30
2018-11-29T12:58:04.558Z,6.40
2018-11-29T13:00:21.020Z,6.97
2018-11-29T13:02:49.505Z,7.10
2018-11-29T13:05:17.407Z,6.80
2018-11-29T13:07:45.306Z,6.13
2018-11-29T13:10:14.145Z,6.13
2018-11-29T13:12:42.026Z,6.17
2018-11-29T13:15:10.835Z,5.40
2018-11-29T13:17:38.714Z,5.67
2018-11-29T13:20:08.484Z,5.70
2018-11-29T13:22:36.372Z,5.70
2018-11-29T13:25:04.857Z,5.90
2018-11-29T13:27:32.924Z,5.50
2018-11-29T13:30:00.659Z,5.60
2018-11-29T13:32:28.532Z,5.50
2018-11-29T13:34:56.456Z,5.47
2018-11-29T13:37:24.360Z,5.47
2018-11-29T13:39:52.222Z,6.10
2018-11-29T13:42:20.158Z,6.00
2018-11-29T13:44:48.155Z,6.13
2018-11-29T13:47:15.913Z,6.33
2018-11-29T13:49:43.831Z,6.60
2018-11-29T13:52:11.709Z,6.23
2018-11-29T13:54:39.593Z,6.80
2018-11-29T13:57:07.487Z,6.70
2018-11-29T13:59:35.367Z,6.43
2018-11-29T14:02:03.257Z,6.73
2018-11-29T14:04:31.181Z,7.40
2018-11-29T14:06:59.080Z,6.33
2018-11-29T14:09:26.978Z,6.70
2018-11-29T14:11:54.876Z,6.43
2018-11-29T14:14:22.760Z,6.63
2018-11-29T14:16:50.675Z,6.87
2018-11-29T14:19:18.571Z,7.17
2018-11-29T14:21:51.240Z,7.03
2018-11-29T14:24:14.382Z,6.37
2018-11-29T14:26:42.333Z,7.00
2018-11-29T14:29:10.260Z,7.30
2018-11-29T14:31:38.168Z,7.63
2018-11-29T14:34:06.072Z,7.63
2018-11-29T14:36:33.957Z,7.50
2018-11-29T14:39:01.839Z,7.10
2018-11-29T14:41:29.752Z,7.53
2018-11-29T14:43:57.634Z,7.97
2018-11-29T14:46:25.542Z,8.73
2018-11-29T14:48:53.447Z,8.70
2018-11-29T14:51:21.355Z,9.30
2018-11-29T14:53:49.245Z,8.13
2018-11-29T14:56:17.158Z,9.00
2018-11-29T14:58:45.047Z,8.67
2018-11-29T15:01:12.968Z,8.03
2018-11-29T15:03:40.870Z,8.97
2018-11-29T15:06:08.762Z,8.27
2018-11-29T15:08:36.644Z,7.13
2018-11-29T15:11:04.696Z,8.27
2018-11-29T15:13:32.613Z,7.87
2018-11-29T15:16:00.528Z,8.97
2018-11-29T15:18:28.416Z,8.40
2018-11-29T15:20:56.309Z,8.00
2018-11-29T15:23:24.220Z,8.13
2018-11-29T15:25:52.100Z,9.03
2018-11-29T15:28:20.012Z,8.57
2018-11-29T15:30:47.930Z,8.60
2018-11-29T15:33:15.866Z,7.83
2018-11-29T15:35:43.760Z,8.93
2018-11-29T15:38:11.665Z,9.27
2018-11-29T15:40:39.610Z,8.93
2018-11-29T15:43:07.493Z,8.10
2018-11-29T15:45:35.419Z,9.23
2018-11-29T15:48:03.342Z,8.90
2018-11-29T15:50:31.297Z,9.17
2018-11-29T15:52:59.195Z,9.63
2018-11-29T15:55:27.123Z,10.33
2018-11-29T15:57:55.016Z,9.87
2018-11-29T16:00:25.566Z,8.70
2018-11-29T16:02:53.968Z,9.27
2018-11-29T16:05:21.886Z,10.63
2018-11-29T16:07:49.782Z,9.17
2018-11-29T16:10:19.410Z,9.43
2018-11-29T16:12:47.305Z,9.80
2018-11-29T16:15:15.648Z,9.03
2018-11-29T16:17:43.824Z,9.90
2018-11-29T16:20:18.637Z,9.80
2018-11-29T16:22:46.574Z,9.40
2018-11-29T16:25:14.464Z,9.17
2018-11-29T16:27:42.361Z,9.73
2018-11-29T16:30:13.303Z,9.50
2018-11-29T16:32:41.390Z,9.87
2018-11-29T16:35:09.293Z,8.90
2018-11-29T16:37:37.180Z,8.73
2018-11-29T16:40:05.875Z,9.23
2018-11-29T16:42:33.800Z,10.53
2018-11-29T16:45:01.715Z,9.77
2018-11-29T16:47:29.614Z,10.57
2018-11-29T16:49:57.534Z,9.67
2018-11-29T16:52:25.428Z,9.87
2018-11-29T16:54:53.345Z,9.83
2018-11-29T16:57:21.260Z,9.57
2018-11-29T16:59:49.195Z,10.73
2018-11-29T17:02:17.093Z,9.77
2018-11-29T17:04:44.983Z,9.40
2018-11-29T17:07:12.905Z,9.47
2018-11-29T17:09:40.817Z,9.80
2018-11-29T17:12:08.714Z,10.03
2018-11-29T17:14:36.604Z,9.70
2018-11-29T17:17:04.722Z,9.33
2018-11-29T17:19:32.607Z,9.67
2018-11-29T17:22:00.522Z,10.43
2018-11-29T17:24:28.416Z,10.57
2018-11-29T17:26:56.342Z,9.43
2018-11-29T17:29:24.239Z,10.43
2018-11-29T17:31:52.146Z,10.70
2018-11-29T17:34:20.028Z,11.13
2018-11-29T17:36:47.908Z,10.80
2018-11-29T17:39:15.819Z,10.83
2018-11-29T17:41:43.754Z,11.27
2018-11-29T17:44:11.634Z,10.93
2018-11-29T17:46:39.613Z,11.53
2018-11-29T17:49:07.513Z,12.17
2018-11-29T17:51:35.395Z,11.57
2018-11-29T17:54:03.295Z,13.47
2018-11-29T17:56:31.187Z,13.10
2018-11-29T17:58:59.081Z,13.50
2018-11-29T18:01:26.982Z,12.43
2018-11-29T18:03:55.406Z,12.43
2018-11-29T18:06:23.319Z,12.77
2018-11-29T18:08:51.209Z,14.37
2018-11-29T18:11:19.106Z,14.30
2018-11-29T18:13:47.014Z,13.97
2018-11-29T18:16:14.916Z,14.13
2018-11-29T18:18:42.854Z,14.23
2018-11-29T18:21:10.753Z,15.20
2018-11-29T18:23:38.638Z,14.93
2018-11-29T18:26:06.569Z,15.60
2018-11-29T18:28:34.478Z,16.03
2018-11-29T18:31:02.367Z,15.07
2018-11-29T18:33:30.266Z,15.60
2018-11-29T18:35:58.890Z,15.33
2018-11-29T18:38:26.806Z,14.60
2018-11-29T18:40:54.689Z,15.73
2018-11-29T18:43:22.584Z,15.67
2018-11-29T18:45:50.523Z,14.67
2018-11-29T18:48:18.440Z,14.63
2018-11-29T18:50:46.363Z,13.87
2018-11-29T18:53:14.291Z,14.30
2018-11-29T18:55:42.187Z,14.03
2018-11-29T18:58:10.096Z,14.83
2018-11-29T19:00:38.014Z,14.87
2018-11-29T19:03:06.296Z,14.20
2018-11-29T19:05:34.171Z,14.20
2018-11-29T19:08:02.078Z,14.50
2018-11-29T19:10:29.976Z,14.13
2018-11-29T19:12:58.679Z,14.87
2018-11-29T19:15:26.642Z,14.63
2018-11-29T19:17:54.557Z,14.93
2018-11-29T19:20:22.456Z,14.47
2018-11-29T19:22:50.362Z,14.20
2018-11-29T19:25:18.654Z,13.83
2018-11-29T19:27:46.937Z,13.47
2018-11-29T19:30:15.575Z,13.13
2018-11-29T19:32:44.019Z,12.90
2018-11-29T19:35:12.028Z,13.50
2018-11-29T19:37:39.983Z,12.87
2018-11-29T19:40:09.828Z,13.33
2018-11-29T19:42:37.721Z,13.27
2018-11-29T19:45:05.974Z,13.30
2018-11-29T19:47:33.959Z,14.70
2018-11-29T19:50:01.982Z,14.47
2018-11-29T19:52:29.938Z,13.47
2018-11-29T19:54:57.927Z,13.83
2018-11-29T19:57:25.928Z,14.13
2018-11-29T19:59:53.800Z,14.27
2018-11-29T20:02:21.684Z,14.13
2018-11-29T20:04:49.591Z,15.00
2018-11-29T20:07:17.462Z,14.60
2018-11-29T20:09:45.361Z,15.17
2018-11-29T20:12:13.279Z,15.33
2018-11-29T20:14:41.206Z,15.27
2018-11-29T20:17:09.125Z,16.20
2018-11-29T20:19:37.028Z,15.07
2018-11-29T20:22:05.206Z,16.90
2018-11-29T20:24:33.131Z,16.30
2018-11-29T20:27:00.997Z,15.60
2018-11-29T20:29:28.900Z,15.87
2018-11-29T20:31:56.808Z,16.63
2018-11-29T20:34:24.733Z,16.67
2018-11-29T20:36:52.632Z,16.50
2018-11-29T20:39:20.539Z,18.47
2018-11-29T20:41:48.528Z,17.40
2018-11-29T20:44:16.445Z,17.30
2018-11-29T20:46:44.376Z,17.77
2018-11-29T20:51:47.029Z,16.97
2018-11-29T20:54:15.078Z,16.97
2018-11-29T20:56:43.170Z,17.27
2018-11-29T20:59:11.208Z,17.77
2018-11-29T21:01:39.341Z,17.57
2018-11-29T21:04:07.338Z,17.27
2018-11-29T21:06:35.383Z,17.10
2018-11-29T21:09:03.975Z,16.07
2018-11-29T21:11:32.023Z,17.60
2018-11-29T21:14:00.084Z,17.13
2018-11-29T21:16:28.117Z,17.47
2018-11-29T21:18:56.163Z,16.67
2018-11-29T21:21:24.256Z,17.40
2018-11-29T21:23:52.321Z,18.10
2018-11-29T21:26:20.406Z,16.70
2018-11-29T21:28:48.459Z,17.17
2018-11-29T21:31:16.566Z,17.70
2018-11-29T21:33:44.607Z,17.23
2018-11-29T21:36:12.660Z,46.23
2018-11-29T21:38:40.684Z,33.13
2018-11-29T21:41:08.735Z,24.83
2018-11-29T21:43:36.802Z,22.00
2018-11-29T21:46:04.864Z,19.27
2018-11-29T21:48:32.888Z,19.57
2018-11-29T21:51:00.933Z,19.97
2018-11-29T21:53:28.979Z,20.20
2018-11-29T21:55:57.040Z,21.67
2018-11-29T21:58:25.158Z,18.13
2018-11-29T22:00:53.234Z,18.00
2018-11-29T22:03:21.306Z,18.17
2018-11-29T22:05:49.347Z,18.47
2018-11-29T22:08:17.360Z,19.67
2018-11-29T22:10:45.707Z,18.90
2018-11-29T22:13:13.866Z,18.87
2018-11-29T22:15:41.914Z,18.53
2018-11-29T22:18:19.820Z,17.67
2018-11-29T22:20:50.222Z,18.87
2018-11-29T22:23:18.186Z,19.30
2018-11-29T22:25:46.226Z,16.90
2018-11-29T22:28:14.305Z,18.10
2018-11-29T22:30:42.356Z,16.30
2018-11-29T22:33:10.378Z,18.37
2018-11-29T22:35:38.414Z,18.30
2018-11-29T22:38:07.073Z,17.83
2018-11-29T22:40:35.133Z,16.73
2018-11-29T22:43:03.336Z,17.47
2018-11-29T22:45:31.412Z,17.80
2018-11-29T22:47:59.491Z,17.30
2018-11-29T22:50:27.540Z,17.90
2018-11-29T22:52:55.644Z,17.70
2018-11-29T22:55:23.702Z,17.47
2018-11-29T22:57:51.740Z,17.30
2018-11-29T23:00:20.218Z,17.03
2018-11-29T23:02:49.355Z,17.63
2018-11-29T23:05:17.476Z,17.80
2018-11-29T23:07:45.623Z,18.23
2018-11-29T23:10:13.790Z,19.30
2018-11-29T23:12:41.964Z,19.57
2018-11-29T23:15:11.298Z,19.37
2018-11-29T23:17:40.064Z,18.13
2018-11-29T23:20:11.567Z,19.17
2018-11-29T23:22:40.218Z,18.27
2018-11-29T23:25:09.970Z,18.00
2018-11-29T23:27:38.087Z,18.00
2018-11-29T23:30:14.488Z,17.93
2018-11-29T23:32:42.968Z,16.90
2018-11-29T23:35:11.868Z,17.73
2018-11-29T23:37:40.000Z,17.50
2018-11-29T23:40:10.573Z,17.27
2018-11-29T23:42:38.769Z,18.27
2018-11-29T23:45:08.455Z,17.87
2018-11-29T23:47:36.724Z,17.90
2018-11-29T23:50:07.450Z,17.87
2018-11-29T23:52:35.607Z,18.53
2018-11-29T23:55:03.921Z,18.57
2018-11-29T23:57:32.113Z,17.77
